Time;durP1;ratioP1;P1;durP2;ratioP2;P2;SDS_P1;SDS_P2;PMS_P1;PMS_P2;Temp;Humidity;BMP_temperature;BMP_pressure;BME280_temperature;BME280_humidity;BME280_pressure;Samples;Min_cycle;Max_cycle;Signal;HPM_P1;HPM_P2
2022/07/22 00:00:13;;;;;;;6.63;1.65;;;;;;;;;;5121000;27;20461;-71
2022/07/22 00:02:39;;;;;;;10.27;1.85;;;;;;;;;;5124321;27;21291;-74
2022/07/22 00:05:06;;;;;;;7.25;1.75;;;;;;;;;;5120627;27;20095;-73
2022/07/22 00:07:32;;;;;;;5.25;1.50;;;;;;;;;;5120932;27;20492;-73
2022/07/22 00:09:58;;;;;;;10.10;2.08;;;;;;;;;;5101469;27;20514;-74
2022/07/22 00:12:24;;;;;;;7.43;1.70;;;;;;;;;;5121613;27;20089;-73
2022/07/22 00:14:50;;;;;;;7.13;1.63;;;;;;;;;;5122903;27;20065;-74
2022/07/22 00:17:16;;;;;;;8.23;2.00;;;;;;;;;;5120222;27;20039;-72
2022/07/22 00:19:42;;;;;;;9.07;1.90;;;;;;;;;;5122805;27;20047;-72
2022/07/22 00:22:08;;;;;;;5.10;1.58;;;;;;;;;;5133092;27;20074;-73
2022/07/22 00:24:34;;;;;;;8.10;2.22;;;;;;;;;;5123585;27;20086;-74
2022/07/22 00:27:00;;;;;;;9.45;2.00;;;;;;;;;;5116245;27;21422;-73
2022/07/22 00:29:26;;;;;;;9.25;2.55;;;;;;;;;;5134597;27;20040;-74
2022/07/22 00:31:52;;;;;;;9.20;2.70;;;;;;;;;;5129099;27;20043;-72
2022/07/22 00:34:18;;;;;;;10.57;2.80;;;;;;;;;;5132327;27;20035;-73
2022/07/22 00:36:44;;;;;;;11.02;3.20;;;;;;;;;;5129346;27;20031;-73
2022/07/22 00:39:10;;;;;;;12.93;3.88;;;;;;;;;;5113947;27;20047;-71
2022/07/22 00:41:36;;;;;;;12.52;4.45;;;;;;;;;;5127546;27;20038;-73
2022/07/22 00:44:03;;;;;;;13.82;4.30;;;;;;;;;;5134586;27;20053;-72
2022/07/22 00:46:30;;;;;;;13.18;4.80;;;;;;;;;;5124906;27;20075;-73
2022/07/22 00:48:56;;;;;;;16.35;5.18;;;;;;;;;;5112533;27;20047;-73
2022/07/22 00:51:23;;;;;;;12.95;4.97;;;;;;;;;;5122883;27;20099;-72
2022/07/22 00:53:49;;;;;;;15.05;4.00;;;;;;;;;;5133256;27;20067;-73
2022/07/22 00:56:16;;;;;;;9.73;3.90;;;;;;;;;;5132666;27;20392;-73
2022/07/22 00:58:43;;;;;;;15.75;4.18;;;;;;;;;;5130366;27;20053;-74
2022/07/22 01:01:09;;;;;;;13.70;4.10;;;;;;;;;;5133839;27;20537;-72
2022/07/22 01:03:35;;;;;;;12.70;3.50;;;;;;;;;;5131576;27;20073;-73
2022/07/22 01:06:01;;;;;;;16.25;4.35;;;;;;;;;;5130968;27;20031;-73
2022/07/22 01:08:27;;;;;;;12.85;3.90;;;;;;;;;;5126796;27;20175;-73
2022/07/22 01:10:53;;;;;;;15.52;3.85;;;;;;;;;;5134607;27;20054;-72
2022/07/22 01:13:19;;;;;;;13.05;3.50;;;;;;;;;;5132901;27;20408;-74
2022/07/22 01:15:45;;;;;;;16.65;3.15;;;;;;;;;;5133583;27;20043;-74
2022/07/22 01:18:11;;;;;;;12.52;3.00;;;;;;;;;;5117753;27;20395;-73
2022/07/22 01:20:38;;;;;;;12.35;3.30;;;;;;;;;;5129710;27;20046;-73
2022/07/22 01:23:04;;;;;;;11.13;3.22;;;;;;;;;;5132000;27;20480;-72
2022/07/22 01:25:29;;;;;;;12.73;2.90;;;;;;;;;;5129758;27;20038;-72
2022/07/22 01:27:56;;;;;;;10.85;3.22;;;;;;;;;;5121738;27;20039;-73
2022/07/22 01:30:22;;;;;;;10.15;2.80;;;;;;;;;;5115654;27;20051;-72
2022/07/22 01:32:48;;;;;;;14.00;3.70;;;;;;;;;;5130720;27;20066;-75
2022/07/22 01:35:14;;;;;;;13.43;3.78;;;;;;;;;;5131784;27;20042;-73
2022/07/22 01:37:40;;;;;;;14.90;3.55;;;;;;;;;;5130201;27;20817;-73
2022/07/22 01:40:06;;;;;;;11.77;3.50;;;;;;;;;;5130102;27;20045;-73
2022/07/22 01:42:32;;;;;;;15.60;3.80;;;;;;;;;;5126561;27;20054;-72
2022/07/22 01:44:58;;;;;;;12.77;3.55;;;;;;;;;;5132199;27;20043;-73
2022/07/22 01:47:24;;;;;;;13.57;3.65;;;;;;;;;;5129522;27;20500;-73
2022/07/22 01:49:50;;;;;;;10.65;3.72;;;;;;;;;;5127677;28;20079;-73
2022/07/22 01:52:16;;;;;;;12.82;3.55;;;;;;;;;;5130219;28;20074;-72
2022/07/22 01:54:42;;;;;;;12.05;3.55;;;;;;;;;;5127410;28;20096;-73
2022/07/22 01:57:08;;;;;;;14.07;3.47;;;;;;;;;;5116225;28;20122;-73
2022/07/22 01:59:34;;;;;;;10.50;3.30;;;;;;;;;;5114953;28;20122;-73
2022/07/22 02:02:00;;;;;;;17.77;3.65;;;;;;;;;;5133119;28;20039;-73
2022/07/22 02:04:26;;;;;;;15.68;3.90;;;;;;;;;;5132357;28;20039;-73
2022/07/22 02:06:52;;;;;;;13.00;3.35;;;;;;;;;;5129888;28;20522;-73
2022/07/22 02:09:18;;;;;;;15.18;3.40;;;;;;;;;;5131488;27;20081;-73
2022/07/22 02:11:44;;;;;;;16.92;3.50;;;;;;;;;;5136404;27;20034;-73
2022/07/22 02:14:10;;;;;;;12.13;3.55;;;;;;;;;;5133362;27;20515;-74
2022/07/22 02:16:36;;;;;;;15.77;3.72;;;;;;;;;;5127554;27;20070;-74
2022/07/22 02:19:02;;;;;;;14.38;3.22;;;;;;;;;;5130351;27;20096;-73
2022/07/22 02:21:28;;;;;;;16.27;3.33;;;;;;;;;;5134984;27;20081;-73
2022/07/22 02:23:54;;;;;;;10.98;3.35;;;;;;;;;;5136033;27;20039;-72
2022/07/22 02:26:20;;;;;;;11.40;3.28;;;;;;;;;;5134816;27;20046;-73
2022/07/22 02:28:46;;;;;;;15.63;3.70;;;;;;;;;;5136963;27;20434;-72
2022/07/22 02:31:12;;;;;;;13.18;3.38;;;;;;;;;;5135426;27;20050;-73
2022/07/22 02:33:39;;;;;;;15.77;2.83;;;;;;;;;;5134824;27;20045;-74
2022/07/22 02:36:05;;;;;;;13.27;2.95;;;;;;;;;;5135752;27;20484;-73
2022/07/22 02:38:31;;;;;;;17.65;3.53;;;;;;;;;;5136194;27;20051;-72
2022/07/22 02:40:57;;;;;;;20.63;3.33;;;;;;;;;;5136749;27;20080;-73
2022/07/22 02:43:23;;;;;;;18.63;3.70;;;;;;;;;;5115696;27;20411;-72
2022/07/22 02:45:49;;;;;;;12.93;3.10;;;;;;;;;;5133425;27;20040;-72
2022/07/22 02:48:15;;;;;;;12.48;2.70;;;;;;;;;;5124373;27;20054;-74
2022/07/22 02:50:47;;;;;;;14.25;3.15;;;;;;;;;;5135436;27;20136;-73
2022/07/22 02:53:13;;;;;;;12.05;2.85;;;;;;;;;;5127644;27;20489;-73
2022/07/22 02:55:39;;;;;;;17.10;3.30;;;;;;;;;;5130995;27;20040;-73
2022/07/22 02:58:06;;;;;;;15.68;2.90;;;;;;;;;;5131319;27;20043;-73
2022/07/22 03:00:33;;;;;;;17.48;3.10;;;;;;;;;;5115335;27;20534;-72
2022/07/22 03:02:59;;;;;;;11.65;2.83;;;;;;;;;;5133470;27;20039;-74
2022/07/22 03:05:25;;;;;;;15.25;3.00;;;;;;;;;;5118542;27;20043;-72
2022/07/22 03:07:51;;;;;;;14.85;3.20;;;;;;;;;;5135508;27;20046;-73
2022/07/22 03:10:17;;;;;;;19.98;2.95;;;;;;;;;;5100498;27;20424;-74
2022/07/22 03:12:43;;;;;;;15.35;3.00;;;;;;;;;;5136084;27;20042;-73
2022/07/22 03:15:09;;;;;;;14.75;3.42;;;;;;;;;;5133159;27;20050;-72
2022/07/22 03:17:36;;;;;;;12.48;2.80;;;;;;;;;;5126187;27;20043;-74
2022/07/22 03:20:04;;;;;;;19.77;3.25;;;;;;;;;;5105784;27;20039;-72
2022/07/22 03:22:30;;;;;;;17.90;3.50;;;;;;;;;;5133852;27;20047;-73
2022/07/22 03:24:56;;;;;;;20.85;3.80;;;;;;;;;;5134009;27;20042;-73
2022/07/22 03:27:23;;;;;;;10.73;2.78;;;;;;;;;;5132530;27;20047;-73
2022/07/22 03:29:49;;;;;;;16.73;3.40;;;;;;;;;;5126629;27;20051;-73
2022/07/22 03:32:15;;;;;;;13.77;2.90;;;;;;;;;;5134719;27;20043;-72
2022/07/22 03:34:41;;;;;;;15.52;4.03;;;;;;;;;;5123354;27;20130;-73
2022/07/22 03:37:07;;;;;;;11.23;2.83;;;;;;;;;;5127634;27;20043;-72
2022/07/22 03:39:34;;;;;;;16.75;2.78;;;;;;;;;;5134269;27;20484;-73
2022/07/22 03:42:00;;;;;;;16.70;3.25;;;;;;;;;;5127458;27;20116;-73
2022/07/22 03:44:26;;;;;;;14.25;2.92;;;;;;;;;;5121459;27;20055;-73
2022/07/22 03:46:52;;;;;;;13.32;2.42;;;;;;;;;;5127709;27;20104;-73
2022/07/22 03:49:18;;;;;;;12.52;2.75;;;;;;;;;;5128389;27;20047;-73
2022/07/22 03:51:44;;;;;;;13.07;2.25;;;;;;;;;;5133562;27;20050;-72
2022/07/22 03:54:10;;;;;;;11.43;2.22;;;;;;;;;;5112159;27;20576;-73
2022/07/22 03:56:36;;;;;;;10.90;2.15;;;;;;;;;;5131951;27;20054;-72
2022/07/22 03:59:02;;;;;;;11.48;2.13;;;;;;;;;;5126829;27;20404;-73
2022/07/22 04:01:28;;;;;;;14.55;2.40;;;;;;;;;;5130051;27;20055;-73
2022/07/22 04:03:54;;;;;;;14.23;2.10;;;;;;;;;;5135127;27;20048;-73
2022/07/22 04:06:20;;;;;;;12.63;2.88;;;;;;;;;;5130403;27;20493;-73
2022/07/22 04:08:46;;;;;;;12.38;2.13;;;;;;;;;;5114261;27;20050;-74
2022/07/22 04:11:12;;;;;;;15.65;2.50;;;;;;;;;;5135530;27;20039;-73
2022/07/22 04:13:38;;;;;;;12.48;2.22;;;;;;;;;;5130461;27;20050;-73
2022/07/22 04:16:05;;;;;;;13.90;2.38;;;;;;;;;;5122163;27;20118;-73
2022/07/22 04:18:31;;;;;;;13.88;2.70;;;;;;;;;;5120741;27;20039;-73
2022/07/22 04:20:57;;;;;;;16.20;2.40;;;;;;;;;;5132808;27;20035;-73
2022/07/22 04:23:23;;;;;;;9.15;2.28;;;;;;;;;;5114826;27;20031;-73
2022/07/22 04:25:49;;;;;;;9.88;1.85;;;;;;;;;;5134141;27;20138;-73
2022/07/22 04:28:15;;;;;;;12.52;2.85;;;;;;;;;;5125367;27;20556;-73
2022/07/22 04:30:41;;;;;;;8.38;2.00;;;;;;;;;;5134248;27;20127;-72
2022/07/22 04:33:07;;;;;;;10.95;2.08;;;;;;;;;;5130665;27;20044;-74
2022/07/22 04:35:33;;;;;;;12.85;2.38;;;;;;;;;;5127737;27;20049;-73
2022/07/22 04:38:00;;;;;;;10.65;2.13;;;;;;;;;;5133190;27;20051;-73
2022/07/22 04:40:26;;;;;;;10.85;2.10;;;;;;;;;;5134819;27;20500;-74
2022/07/22 04:42:52;;;;;;;9.10;2.22;;;;;;;;;;5129777;27;20039;-72
2022/07/22 04:45:18;;;;;;;8.60;1.80;;;;;;;;;;5100014;27;20476;-73
2022/07/22 04:47:44;;;;;;;11.02;2.30;;;;;;;;;;5126830;27;20045;-72
2022/07/22 04:50:10;;;;;;;16.35;2.28;;;;;;;;;;5114693;27;20501;-72
2022/07/22 04:52:36;;;;;;;6.82;2.05;;;;;;;;;;5128932;27;20484;-72
2022/07/22 04:55:02;;;;;;;9.75;2.00;;;;;;;;;;5128632;27;20055;-72
2022/07/22 04:57:28;;;;;;;13.05;2.40;;;;;;;;;;5134397;27;20079;-73
2022/07/22 04:59:54;;;;;;;8.18;2.05;;;;;;;;;;5134603;27;20078;-72
2022/07/22 05:02:20;;;;;;;11.77;2.03;;;;;;;;;;5134666;27;20131;-73
2022/07/22 05:04:46;;;;;;;10.15;2.00;;;;;;;;;;5115393;27;20107;-72
2022/07/22 05:07:12;;;;;;;10.65;2.38;;;;;;;;;;5121118;27;20138;-73
2022/07/22 05:09:38;;;;;;;9.48;2.22;;;;;;;;;;5133552;27;20126;-72
2022/07/22 05:12:05;;;;;;;8.98;2.17;;;;;;;;;;5134445;27;20130;-74
2022/07/22 05:14:30;;;;;;;9.93;2.35;;;;;;;;;;5134192;27;20560;-73
2022/07/22 05:16:57;;;;;;;11.23;2.00;;;;;;;;;;5134249;27;20125;-73
2022/07/22 05:19:23;;;;;;;7.15;1.98;;;;;;;;;;5133841;27;20130;-75
2022/07/22 05:21:49;;;;;;;10.35;2.20;;;;;;;;;;5113876;27;20071;-72
2022/07/22 05:24:15;;;;;;;7.93;1.70;;;;;;;;;;5132899;27;20052;-72
2022/07/22 05:26:41;;;;;;;9.65;1.90;;;;;;;;;;5123202;27;20055;-72
2022/07/22 05:29:07;;;;;;;8.82;2.00;;;;;;;;;;5122375;27;20052;-73
2022/07/22 05:31:33;;;;;;;8.65;1.90;;;;;;;;;;5134009;27;20060;-73
2022/07/22 05:33:59;;;;;;;10.68;2.10;;;;;;;;;;5126960;27;20044;-72
2022/07/22 05:36:25;;;;;;;6.65;1.88;;;;;;;;;;5125876;27;20050;-73
2022/07/22 05:38:51;;;;;;;8.90;2.00;;;;;;;;;;5131288;27;20066;-73
2022/07/22 05:41:17;;;;;;;7.28;2.00;;;;;;;;;;5134075;27;20069;-74
2022/07/22 05:43:43;;;;;;;9.35;2.15;;;;;;;;;;5132800;27;20536;-73
2022/07/22 05:46:09;;;;;;;10.23;1.85;;;;;;;;;;5133346;27;20050;-72
2022/07/22 05:48:35;;;;;;;7.70;1.85;;;;;;;;;;5133893;27;20509;-73
2022/07/22 05:51:01;;;;;;;10.80;1.98;;;;;;;;;;5133942;28;20051;-74
2022/07/22 05:53:27;;;;;;;9.82;1.90;;;;;;;;;;5114797;28;20035;-73
2022/07/22 05:55:53;;;;;;;8.73;1.90;;;;;;;;;;5128287;28;20085;-73
2022/07/22 05:58:19;;;;;;;7.60;1.70;;;;;;;;;;5132038;28;20039;-73
2022/07/22 06:00:45;;;;;;;10.75;2.03;;;;;;;;;;5133027;28;20127;-71
2022/07/22 06:03:11;;;;;;;8.48;1.73;;;;;;;;;;5119327;28;20036;-74
2022/07/22 06:05:37;;;;;;;8.70;1.83;;;;;;;;;;5114180;28;20043;-72
2022/07/22 06:08:03;;;;;;;10.18;2.20;;;;;;;;;;5115323;28;20044;-73
2022/07/22 06:10:29;;;;;;;8.52;1.73;;;;;;;;;;5112882;28;20481;-72
2022/07/22 06:12:55;;;;;;;5.43;1.60;;;;;;;;;;5113078;28;20044;-73
2022/07/22 06:15:21;;;;;;;9.27;1.95;;;;;;;;;;5113136;28;20085;-74
2022/07/22 06:17:47;;;;;;;8.57;2.00;;;;;;;;;;5112782;28;20066;-73
2022/07/22 06:20:13;;;;;;;8.65;1.95;;;;;;;;;;5104516;28;20043;-72
2022/07/22 06:22:40;;;;;;;7.07;1.80;;;;;;;;;;5133394;28;20100;-75
2022/07/22 06:25:07;;;;;;;8.30;2.00;;;;;;;;;;5114038;28;20078;-72
2022/07/22 06:27:33;;;;;;;9.55;1.75;;;;;;;;;;5115067;28;20433;-74
2022/07/22 06:29:59;;;;;;;6.95;1.67;;;;;;;;;;5115182;28;20043;-73
2022/07/22 06:32:25;;;;;;;8.27;1.48;;;;;;;;;;5132836;28;20040;-74
2022/07/22 06:34:51;;;;;;;9.07;2.00;;;;;;;;;;5128177;28;20497;-73
2022/07/22 06:37:17;;;;;;;8.15;1.90;;;;;;;;;;5122989;28;20043;-73
2022/07/22 06:39:43;;;;;;;7.95;1.38;;;;;;;;;;5130072;28;20043;-72
2022/07/22 06:42:09;;;;;;;7.60;1.38;;;;;;;;;;5132074;28;20154;-73
2022/07/22 06:44:35;;;;;;;7.75;1.45;;;;;;;;;;5115005;28;20114;-72
2022/07/22 06:47:01;;;;;;;8.65;2.13;;;;;;;;;;5133053;28;20122;-73
2022/07/22 06:49:27;;;;;;;8.25;1.42;;;;;;;;;;5132927;28;20136;-73
2022/07/22 06:51:53;;;;;;;9.98;2.00;;;;;;;;;;5126475;28;20123;-72
2022/07/22 06:54:19;;;;;;;7.20;1.80;;;;;;;;;;5114208;28;20119;-73
2022/07/22 06:56:45;;;;;;;10.77;1.73;;;;;;;;;;5115509;28;20420;-74
2022/07/22 06:59:11;;;;;;;7.55;1.50;;;;;;;;;;5116517;28;20131;-72
2022/07/22 07:01:37;;;;;;;8.13;1.40;;;;;;;;;;5116200;28;20046;-74
2022/07/22 07:04:04;;;;;;;6.45;1.50;;;;;;;;;;5131656;27;20096;-74
2022/07/22 07:06:30;;;;;;;8.10;2.20;;;;;;;;;;5136665;27;20163;-74
2022/07/22 07:08:57;;;;;;;6.63;1.75;;;;;;;;;;5129519;27;20068;-73
2022/07/22 07:11:23;;;;;;;6.22;1.42;;;;;;;;;;5116594;27;20052;-74
2022/07/22 07:13:49;;;;;;;5.05;1.17;;;;;;;;;;5116298;28;20043;-73
2022/07/22 07:16:15;;;;;;;9.90;1.70;;;;;;;;;;5129847;27;20051;-73
2022/07/22 07:18:41;;;;;;;7.93;1.48;;;;;;;;;;5135100;27;20134;-73
2022/07/22 07:21:07;;;;;;;7.00;1.30;;;;;;;;;;5134580;27;20047;-72
2022/07/22 07:23:33;;;;;;;7.88;1.20;;;;;;;;;;5135246;27;20195;-72
2022/07/22 07:25:59;;;;;;;6.47;1.30;;;;;;;;;;5136418;27;20076;-74
2022/07/22 07:28:25;;;;;;;6.32;1.45;;;;;;;;;;5136167;27;20142;-73
2022/07/22 07:30:51;;;;;;;5.53;1.77;;;;;;;;;;5136113;27;20511;-72
2022/07/22 07:33:17;;;;;;;9.32;1.73;;;;;;;;;;5135413;27;20092;-73
2022/07/22 07:35:43;;;;;;;6.95;1.38;;;;;;;;;;5136063;27;20043;-73
2022/07/22 07:38:09;;;;;;;5.93;1.30;;;;;;;;;;5134682;27;20050;-73
2022/07/22 07:40:35;;;;;;;6.88;1.52;;;;;;;;;;5134373;27;20416;-73
2022/07/22 07:43:02;;;;;;;7.45;1.33;;;;;;;;;;5136045;27;20043;-74
2022/07/22 07:45:28;;;;;;;8.63;1.60;;;;;;;;;;5135257;27;20043;-72
2022/07/22 07:47:54;;;;;;;14.60;1.65;;;;;;;;;;5135548;27;20473;-74
2022/07/22 07:50:20;;;;;;;5.97;1.40;;;;;;;;;;5135682;27;20083;-72
2022/07/22 07:52:49;;;;;;;6.78;1.20;;;;;;;;;;5107778;27;20048;-74
2022/07/22 07:55:15;;;;;;;6.35;1.42;;;;;;;;;;5116383;27;20439;-73
2022/07/22 07:57:41;;;;;;;7.60;1.33;;;;;;;;;;5129244;27;20392;-73
2022/07/22 08:00:10;;;;;;;6.95;1.33;;;;;;;;;;5126926;27;20035;-73
2022/07/22 08:02:39;;;;;;;6.05;1.38;;;;;;;;;;5117172;27;20163;-72
2022/07/22 08:05:06;;;;;;;7.05;1.40;;;;;;;;;;5135554;27;20050;-72
2022/07/22 08:07:32;;;;;;;9.88;1.50;;;;;;;;;;5134789;27;20142;-72
2022/07/22 08:09:58;;;;;;;7.90;1.17;;;;;;;;;;5135520;27;20122;-73
2022/07/22 08:12:24;;;;;;;7.43;1.30;;;;;;;;;;5134796;27;20573;-73
2022/07/22 08:14:50;;;;;;;6.95;1.30;;;;;;;;;;5132976;27;20042;-73
2022/07/22 08:17:16;;;;;;;5.93;1.17;;;;;;;;;;5134308;27;20388;-73
2022/07/22 08:19:42;;;;;;;6.45;1.10;;;;;;;;;;5135026;27;20050;-74
2022/07/22 08:22:08;;;;;;;5.68;1.00;;;;;;;;;;5135442;27;20478;-73
2022/07/22 08:24:34;;;;;;;8.90;1.40;;;;;;;;;;5135200;27;20039;-73
2022/07/22 08:27:00;;;;;;;5.15;1.10;;;;;;;;;;5126346;27;20131;-74
2022/07/22 08:29:26;;;;;;;5.57;1.20;;;;;;;;;;5113078;27;20095;-73
2022/07/22 08:31:52;;;;;;;5.72;1.17;;;;;;;;;;5134322;27;20035;-71
2022/07/22 08:34:18;;;;;;;6.85;1.27;;;;;;;;;;5134484;27;20054;-72
2022/07/22 08:36:44;;;;;;;7.22;1.40;;;;;;;;;;5134334;27;20493;-74
2022/07/22 08:39:10;;;;;;;5.72;1.10;;;;;;;;;;5134910;27;20072;-73
2022/07/22 08:41:36;;;;;;;7.18;1.20;;;;;;;;;;5134819;27;20047;-73
2022/07/22 08:44:07;;;;;;;6.18;1.38;;;;;;;;;;5125793;27;20031;-74
2022/07/22 08:46:33;;;;;;;4.95;1.00;;;;;;;;;;5134747;27;20125;-73
2022/07/22 08:49:01;;;;;;;9.50;1.60;;;;;;;;;;5134484;27;20059;-73
2022/07/22 08:51:27;;;;;;;6.82;1.33;;;;;;;;;;5134324;27;20077;-74
2022/07/22 08:53:53;;;;;;;7.72;1.20;;;;;;;;;;5134603;27;20468;-73
2022/07/22 08:56:19;;;;;;;8.10;1.40;;;;;;;;;;5133653;27;20046;-74
2022/07/22 08:58:45;;;;;;;7.22;1.23;;;;;;;;;;5121825;27;20056;-73
2022/07/22 09:01:14;;;;;;;7.00;1.60;;;;;;;;;;5113828;28;20122;-73
2022/07/22 09:03:50;;;;;;;8.50;1.23;;;;;;;;;;5113994;28;20047;-73
2022/07/22 09:06:16;;;;;;;6.25;1.30;;;;;;;;;;5095415;28;20047;-74
2022/07/22 09:08:56;;;;;;;8.68;1.35;;;;;;;;;;5113846;28;20043;-73
2022/07/22 09:11:23;;;;;;;4.88;1.17;;;;;;;;;;5125580;27;20100;-73
2022/07/22 09:13:50;;;;;;;3.97;1.10;;;;;;;;;;5129457;27;20044;-73
2022/07/22 09:16:16;;;;;;;7.93;1.25;;;;;;;;;;5119945;27;20046;-73
2022/07/22 09:18:46;;;;;;;8.57;1.30;;;;;;;;;;5113324;28;20051;-72
2022/07/22 09:21:13;;;;;;;7.63;1.23;;;;;;;;;;5113587;28;20050;-73
2022/07/22 09:23:41;;;;;;;7.90;1.70;;;;;;;;;;5119034;27;20122;-74
2022/07/22 09:26:07;;;;;;;5.65;1.65;;;;;;;;;;5132589;27;20519;-74
2022/07/22 09:28:33;;;;;;;7.57;1.35;;;;;;;;;;5132890;27;20035;-73
2022/07/22 09:30:59;;;;;;;5.10;0.95;;;;;;;;;;5106142;28;20036;-73
2022/07/22 09:33:26;;;;;;;7.00;1.20;;;;;;;;;;5113880;28;20123;-73
2022/07/22 09:35:52;;;;;;;6.93;1.20;;;;;;;;;;5113568;28;20077;-73
2022/07/22 09:38:20;;;;;;;6.05;1.42;;;;;;;;;;5113277;28;20485;-75
2022/07/22 09:40:47;;;;;;;10.68;1.17;;;;;;;;;;5123965;27;20039;-73
2022/07/22 09:43:15;;;;;;;9.18;1.30;;;;;;;;;;5134066;27;20050;-73
2022/07/22 09:45:45;;;;;;;7.20;1.13;;;;;;;;;;5134039;27;20043;-73
2022/07/22 09:48:11;;;;;;;6.68;1.30;;;;;;;;;;5133667;27;20052;-73
2022/07/22 09:50:37;;;;;;;6.50;1.20;;;;;;;;;;5133990;27;20055;-73
2022/07/22 09:53:03;;;;;;;6.35;1.38;;;;;;;;;;5133039;28;20086;-73
2022/07/22 09:55:30;;;;;;;8.10;1.38;;;;;;;;;;5134068;28;20043;-74
2022/07/22 09:57:57;;;;;;;7.65;1.50;;;;;;;;;;5134024;28;20061;-74
2022/07/22 10:00:24;;;;;;;6.65;1.23;;;;;;;;;;5132138;28;20116;-73
2022/07/22 10:03:00;;;;;;;6.45;1.20;;;;;;;;;;5133522;28;20054;-73
2022/07/22 10:05:28;;;;;;;5.65;1.10;;;;;;;;;;5133812;28;20035;-73
2022/07/22 10:07:54;;;;;;;6.35;1.40;;;;;;;;;;5131877;28;20038;-73
2022/07/22 10:10:22;;;;;;;7.82;1.30;;;;;;;;;;5132100;28;20063;-74
2022/07/22 10:12:49;;;;;;;5.13;1.25;;;;;;;;;;5133589;28;20549;-72
2022/07/22 10:15:15;;;;;;;5.85;1.20;;;;;;;;;;5133645;28;20094;-74
2022/07/22 10:17:43;;;;;;;7.20;1.35;;;;;;;;;;5115182;28;20404;-73
2022/07/22 10:20:09;;;;;;;6.90;1.23;;;;;;;;;;5114105;28;20082;-74
2022/07/22 10:22:42;;;;;;;6.47;1.58;;;;;;;;;;5127714;28;20135;-73
2022/07/22 10:25:09;;;;;;;7.45;1.13;;;;;;;;;;5132967;28;20047;-74
2022/07/22 10:27:44;;;;;;;5.82;1.52;;;;;;;;;;5131289;28;20492;-73
2022/07/22 10:30:10;;;;;;;9.45;1.40;;;;;;;;;;5134108;27;20415;-74
2022/07/22 10:32:36;;;;;;;5.72;1.40;;;;;;;;;;5136885;27;20051;-74
2022/07/22 10:35:03;;;;;;;8.52;1.20;;;;;;;;;;5118663;27;20036;-75
2022/07/22 10:37:37;;;;;;;5.30;1.20;;;;;;;;;;5122648;27;20055;-75
2022/07/22 10:40:14;;;;;;;5.72;1.20;;;;;;;;;;5120176;27;20052;-74
2022/07/22 10:43:06;;;;;;;5.78;1.20;;;;;;;;;;5116714;28;20036;-73
2022/07/22 10:45:34;;;;;;;7.55;1.40;;;;;;;;;;5125209;27;20103;-74
2022/07/22 10:48:05;;;;;;;6.43;1.17;;;;;;;;;;5137254;27;20086;-73
2022/07/22 10:50:51;;;;;;;7.93;1.38;;;;;;;;;;5133036;27;20051;-73
2022/07/22 10:53:19;;;;;;;4.70;1.15;;;;;;;;;;5133078;27;20046;-76
2022/07/22 10:55:58;;;;;;;4.93;1.20;;;;;;;;;;5137049;27;20039;-73
2022/07/22 10:58:40;;;;;;;4.70;1.10;;;;;;;;;;5137324;27;20051;-75
2022/07/22 11:01:07;;;;;;;7.68;1.25;;;;;;;;;;5124583;27;20153;-74
2022/07/22 11:03:34;;;;;;;6.50;1.20;;;;;;;;;;5132763;27;20075;-75
2022/07/22 11:06:19;;;;;;;8.27;1.70;;;;;;;;;;5135157;27;20039;-74
2022/07/22 11:08:46;;;;;;;6.70;1.50;;;;;;;;;;5121309;27;20088;-74
2022/07/22 11:11:12;;;;;;;6.30;1.55;;;;;;;;;;5134002;27;20090;-74
2022/07/22 11:13:39;;;;;;;6.70;1.20;;;;;;;;;;5096468;27;20492;-74
2022/07/22 11:16:22;;;;;;;4.82;1.38;;;;;;;;;;5124213;27;20043;-74
2022/07/22 11:18:57;;;;;;;8.88;1.50;;;;;;;;;;5125478;27;20040;-73
2022/07/22 11:21:24;;;;;;;6.55;1.77;;;;;;;;;;5132333;27;20428;-73
2022/07/22 11:23:51;;;;;;;7.55;1.45;;;;;;;;;;5114800;27;20039;-73
2022/07/22 11:26:18;;;;;;;7.45;1.63;;;;;;;;;;5128652;27;20164;-74
2022/07/22 11:28:45;;;;;;;7.85;1.40;;;;;;;;;;5116045;28;20043;-74
2022/07/22 11:31:14;;;;;;;5.80;1.45;;;;;;;;;;5082851;28;20040;-73
2022/07/22 11:33:40;;;;;;;8.55;1.40;;;;;;;;;;5119629;27;20514;-73
2022/07/22 11:36:07;;;;;;;5.38;1.60;;;;;;;;;;5134446;27;20489;-74
2022/07/22 11:38:49;;;;;;;6.63;1.40;;;;;;;;;;5135721;27;20385;-74
2022/07/22 11:41:18;;;;;;;6.75;1.50;;;;;;;;;;5135472;27;20040;-73
2022/07/22 11:43:49;;;;;;;5.07;1.20;;;;;;;;;;5136457;27;20051;-74
2022/07/22 11:46:16;;;;;;;8.10;1.60;;;;;;;;;;5136378;27;20035;-73
2022/07/22 11:48:42;;;;;;;7.03;1.25;;;;;;;;;;5134458;27;20054;-73
2022/07/22 11:51:12;;;;;;;8.27;1.58;;;;;;;;;;5128962;27;20416;-73
2022/07/22 11:53:39;;;;;;;6.80;1.50;;;;;;;;;;5128248;27;20051;-73
2022/07/22 11:56:06;;;;;;;6.53;1.35;;;;;;;;;;5120717;27;20051;-72
2022/07/22 11:58:35;;;;;;;6.90;1.45;;;;;;;;;;5098185;27;20067;-73
2022/07/22 12:01:02;;;;;;;6.70;1.30;;;;;;;;;;5127999;27;20081;-73
2022/07/22 12:03:28;;;;;;;8.48;1.40;;;;;;;;;;5135118;27;20442;-74
2022/07/22 12:05:55;;;;;;;6.63;1.20;;;;;;;;;;5135028;27;20084;-73
2022/07/22 12:08:21;;;;;;;6.45;1.45;;;;;;;;;;5115567;27;20094;-73
2022/07/22 12:10:47;;;;;;;8.75;1.40;;;;;;;;;;5135664;27;20047;-74
2022/07/22 12:13:13;;;;;;;9.10;2.10;;;;;;;;;;5132560;27;20549;-73
2022/07/22 12:15:40;;;;;;;8.25;1.42;;;;;;;;;;5120200;27;20043;-73
2022/07/22 12:18:23;;;;;;;7.78;1.10;;;;;;;;;;5128472;27;20046;-74
2022/07/22 12:20:50;;;;;;;8.00;1.50;;;;;;;;;;5124432;27;20548;-74
2022/07/22 12:23:16;;;;;;;7.05;1.10;;;;;;;;;;5133776;27;20516;-74
2022/07/22 12:25:51;;;;;;;5.55;1.10;;;;;;;;;;5115460;27;20454;-74
2022/07/22 12:28:17;;;;;;;6.80;1.15;;;;;;;;;;5134620;27;20039;-73
2022/07/22 12:30:45;;;;;;;5.63;1.00;;;;;;;;;;5134629;27;20043;-73
2022/07/22 12:33:17;;;;;;;4.55;1.00;;;;;;;;;;5134363;27;20046;-74
2022/07/22 12:35:44;;;;;;;5.78;1.20;;;;;;;;;;5121291;27;20168;-74
2022/07/22 12:38:11;;;;;;;5.53;1.20;;;;;;;;;;5096994;28;20072;-73
2022/07/22 12:40:38;;;;;;;8.73;1.52;;;;;;;;;;5122090;27;20039;-73
2022/07/22 12:43:04;;;;;;;7.45;1.50;;;;;;;;;;5124440;27;20039;-73
2022/07/22 12:45:30;;;;;;;7.68;1.33;;;;;;;;;;5132872;27;20043;-73
2022/07/22 12:48:06;;;;;;;6.20;1.17;;;;;;;;;;5129575;27;20055;-73
2022/07/22 12:50:40;;;;;;;4.47;0.90;;;;;;;;;;5126126;27;20055;-73
2022/07/22 12:53:09;;;;;;;6.95;1.17;;;;;;;;;;5121775;27;20099;-72
2022/07/22 12:55:36;;;;;;;6.97;1.17;;;;;;;;;;5132952;27;20122;-73
2022/07/22 12:58:03;;;;;;;12.63;1.30;;;;;;;;;;5135355;27;20392;-74
2022/07/22 13:00:31;;;;;;;7.75;1.20;;;;;;;;;;5130115;27;20039;-75
2022/07/22 13:02:57;;;;;;;3.33;0.90;;;;;;;;;;5134291;27;20047;-74
2022/07/22 13:05:23;;;;;;;4.60;1.00;;;;;;;;;;5133914;27;20046;-74
2022/07/22 13:07:50;;;;;;;4.95;1.48;;;;;;;;;;5125290;27;20558;-74
2022/07/22 13:10:16;;;;;;;5.50;1.10;;;;;;;;;;5133911;27;20047;-71
2022/07/22 13:12:42;;;;;;;4.28;0.95;;;;;;;;;;5133265;27;20043;-73
2022/07/22 13:15:09;;;;;;;5.57;0.98;;;;;;;;;;5118753;27;20453;-73
2022/07/22 13:17:36;;;;;;;4.35;1.10;;;;;;;;;;5106929;27;20520;-74
2022/07/22 13:20:02;;;;;;;5.70;1.20;;;;;;;;;;5130562;27;20047;-74
2022/07/22 13:22:28;;;;;;;6.60;1.38;;;;;;;;;;5117925;27;20036;-74
2022/07/22 13:24:54;;;;;;;7.07;1.10;;;;;;;;;;5110650;27;20042;-74
2022/07/22 13:27:20;;;;;;;5.57;1.20;;;;;;;;;;5117544;27;20063;-73
2022/07/22 13:29:46;;;;;;;4.95;1.10;;;;;;;;;;5132803;27;20050;-72
2022/07/22 13:32:12;;;;;;;5.50;1.15;;;;;;;;;;5124670;27;20054;-73
2022/07/22 13:34:38;;;;;;;4.35;1.23;;;;;;;;;;5132677;27;20500;-74
2022/07/22 13:37:04;;;;;;;3.10;0.90;;;;;;;;;;5115767;27;20062;-74
2022/07/22 13:39:30;;;;;;;4.05;1.00;;;;;;;;;;5122576;27;20481;-73
2022/07/22 13:41:56;;;;;;;4.65;1.02;;;;;;;;;;5125830;27;20038;-74
2022/07/22 13:44:22;;;;;;;4.32;1.02;;;;;;;;;;5105614;28;20039;-75
2022/07/22 13:46:49;;;;;;;3.22;0.98;;;;;;;;;;5122650;27;20047;-74
2022/07/22 13:49:15;;;;;;;5.45;1.20;;;;;;;;;;5119909;28;20040;-73
2022/07/22 13:51:41;;;;;;;4.70;1.20;;;;;;;;;;5104657;28;20089;-74
2022/07/22 13:54:07;;;;;;;7.20;1.20;;;;;;;;;;5084344;28;20047;-73
2022/07/22 13:56:34;;;;;;;5.25;1.10;;;;;;;;;;5119851;28;20125;-73
2022/07/22 13:59:00;;;;;;;5.65;1.15;;;;;;;;;;5119117;28;20058;-74
2022/07/22 14:01:26;;;;;;;5.38;1.38;;;;;;;;;;5120455;28;20489;-75
2022/07/22 14:03:52;;;;;;;5.90;1.10;;;;;;;;;;5127113;28;20036;-73
2022/07/22 14:06:18;;;;;;;3.95;1.00;;;;;;;;;;5127459;27;20031;-73
2022/07/22 14:08:45;;;;;;;5.07;1.02;;;;;;;;;;5105113;27;20089;-73
2022/07/22 14:11:11;;;;;;;5.95;1.00;;;;;;;;;;5122781;27;20118;-72
2022/07/22 14:13:37;;;;;;;4.90;0.95;;;;;;;;;;5129825;27;20031;-74
2022/07/22 14:18:48;;;;;;;4.32;1.00;;;;;;;;;;5124121;27;20485;-74
2022/07/22 14:21:14;;;;;;;3.10;0.80;;;;;;;;;;5126645;27;20035;-73
2022/07/22 14:23:40;;;;;;;3.30;1.00;;;;;;;;;;5127534;27;20141;-72
2022/07/22 14:26:06;;;;;;;5.57;1.10;;;;;;;;;;5128811;27;20051;-74
2022/07/22 14:28:32;;;;;;;6.63;1.02;;;;;;;;;;5123600;27;20035;-73
2022/07/22 14:30:58;;;;;;;3.67;1.15;;;;;;;;;;5122183;27;20521;-74
2022/07/22 14:33:24;;;;;;;3.30;0.95;;;;;;;;;;5124692;27;20077;-74
2022/07/22 14:35:50;;;;;;;2.97;0.90;;;;;;;;;;5130332;27;20122;-74
2022/07/22 14:38:17;;;;;;;4.30;1.00;;;;;;;;;;5122717;27;20404;-73